Time;durP1;ratioP1;P1;durP2;ratioP2;P2;SDS_P1;SDS_P2;PMS_P1;PMS_P2;Temp;Humidity;BMP_temperature;BMP_pressure;BME280_temperature;BME280_humidity;BME280_pressure;Samples;Min_cycle;Max_cycle;Signal;HPM_P1;HPM_P2
2022/10/04 00:01:42;;;;;;;;;;;;;;;;;;5030148;28;20492;-56
2022/10/04 00:04:14;;;;;;;;;;;;;;;;;;5031375;28;20341;-56
2022/10/04 00:06:48;;;;;;;;;;;;;;;;;;5030245;28;19912;-56
2022/10/04 00:09:22;;;;;;;;;;;;;;;;;;5031090;28;19919;-56
2022/10/04 00:11:48;;;;;;;;;;;;;;;;;;5032038;28;20383;-56
2022/10/04 00:14:20;;;;;;;;;;;;;;;;;;5031014;28;20182;-56
2022/10/04 00:16:45;;;;;;;;;;;;;;;;;;5029199;28;19919;-56
2022/10/04 00:19:13;;;;;;;;;;;;;;;;;;5032974;28;19913;-57
2022/10/04 00:22:00;;;;;;;;;;;;;;;;;;5029601;28;19924;-56
2022/10/04 00:24:29;;;;;;;;;;;;;;;;;;5031041;28;20371;-56
2022/10/04 00:27:01;;;;;;;;;;;;;;;;;;5031597;28;20374;-56
2022/10/04 00:29:31;;;;;;;;;;;;;;;;;;5039279;28;20444;-56
2022/10/04 00:32:11;;;;;;;;;;;;;;;;;;5031349;28;20003;-56
2022/10/04 00:34:47;;;;;;;;;;;;;;;;;;5026181;28;19913;-56
2022/10/04 00:37:13;;;;;;;;;;;;;;;;;;5028807;28;19920;-56
2022/10/04 00:39:40;;;;;;;;;;;;;;;;;;5036655;28;19916;-56
2022/10/04 00:42:12;;;;;;;;;;;;;;;;;;5032073;28;19936;-56
2022/10/04 00:44:53;;;;;;;;;;;;;;;;;;5029510;28;19920;-56
2022/10/04 00:47:22;;;;;;;;;;;;;;;;;;5031398;28;19920;-56
2022/10/04 00:49:50;;;;;;;;;;;;;;;;;;5033858;28;19928;-56
2022/10/04 00:52:21;;;;;;;;;;;;;;;;;;5034899;28;19923;-56
2022/10/04 00:54:52;;;;;;;;;;;;;;;;;;5034082;28;19920;-56
2022/10/04 00:57:24;;;;;;;;;;;;;;;;;;5029007;28;19924;-56
2022/10/04 00:59:51;;;;;;;;;;;;;;;;;;5034224;28;19953;-56
2022/10/04 01:02:19;;;;;;;;;;;;;;;;;;5030836;28;19913;-56
2022/10/04 01:04:59;;;;;;;;;;;;;;;;;;5037159;28;19917;-56
2022/10/04 01:07:54;;;;;;;;;;;;;;;;;;5035824;28;20402;-56
2022/10/04 01:10:21;;;;;;;;;;;;;;;;;;5025403;28;19913;-56
2022/10/04 01:12:49;;;;;;;;;;;;;;;;;;5031082;28;19956;-56
2022/10/04 01:15:21;;;;;;;;;;;;;;;;;;5034473;28;19921;-57
2022/10/04 01:18:05;;;;;;;;;;;;;;;;;;5034680;28;19913;-56
2022/10/04 01:20:32;;;;;;;;;;;;;;;;;;5032562;28;19912;-56
2022/10/04 01:22:57;;;;;;;;;;;;;;;;;;5031189;28;19917;-55
2022/10/04 01:25:42;;;;;;;;;;;;;;;;;;5037012;28;19919;-56
2022/10/04 01:28:07;;;;;;;;;;;;;;;;;;5037750;28;19971;-56
2022/10/04 01:30:33;;;;;;;;;;;;;;;;;;5031232;28;19992;-56
2022/10/04 01:32:58;;;;;;;;;;;;;;;;;;5030850;28;20367;-56
2022/10/04 01:35:24;;;;;;;;;;;;;;;;;;5032482;28;19965;-55
2022/10/04 01:37:49;;;;;;;;;;;;;;;;;;5031130;28;19924;-56
2022/10/04 01:40:15;;;;;;;;;;;;;;;;;;5030223;28;19945;-56
2022/10/04 01:42:43;;;;;;;;;;;;;;;;;;5031330;28;19920;-56
2022/10/04 01:45:12;;;;;;;;;;;;;;;;;;5030939;28;20003;-56
2022/10/04 01:47:48;;;;;;;;;;;;;;;;;;5032006;28;19917;-57
2022/10/04 01:50:17;;;;;;;;;;;;;;;;;;5031946;28;19936;-57
2022/10/04 01:52:47;;;;;;;;;;;;;;;;;;5033522;28;19916;-57
2022/10/04 01:55:20;;;;;;;;;;;;;;;;;;5034257;28;19913;-57
2022/10/04 01:57:51;;;;;;;;;;;;;;;;;;5032799;28;20051;-57
2022/10/04 02:00:19;;;;;;;;;;;;;;;;;;5036195;28;19999;-57
2022/10/04 02:02:52;;;;;;;;;;;;;;;;;;5031884;28;19992;-56
2022/10/04 02:05:23;;;;;;;;;;;;;;;;;;5030258;28;19913;-57
2022/10/04 02:07:49;;;;;;;;;;;;;;;;;;5032718;28;20015;-57
2022/10/04 02:10:18;;;;;;;;;;;;;;;;;;5032807;28;20003;-57
2022/10/04 02:12:46;;;;;;;;;;;;;;;;;;5030684;28;19987;-57
2022/10/04 02:15:12;;;;;;;;;;;;;;;;;;5034029;28;20363;-57
2022/10/04 02:17:39;;;;;;;;;;;;;;;;;;5034522;28;19917;-57
2022/10/04 02:20:10;;;;;;;;;;;;;;;;;;5035475;28;19942;-57
2022/10/04 02:22:35;;;;;;;;;;;;;;;;;;5031910;28;19913;-57
2022/10/04 02:25:01;;;;;;;;;;;;;;;;;;5035306;28;20398;-57
2022/10/04 02:27:28;;;;;;;;;;;;;;;;;;5031758;28;19913;-56
2022/10/04 02:29:59;;;;;;;;;;;;;;;;;;5032680;28;19920;-57
2022/10/04 02:35:08;;;;;;;;;;;;;;;;;;5030658;28;19986;-56
2022/10/04 02:37:36;;;;;;;;;;;;;;;;;;5030020;28;20374;-57
2022/10/04 02:40:04;;;;;;;;;;;;;;;;;;5028988;28;20051;-57
2022/10/04 02:42:38;;;;;;;;;;;;;;;;;;5029699;28;20003;-57
2022/10/04 02:45:17;;;;;;;;;;;;;;;;;;5029800;28;19943;-57
2022/10/04 02:47:46;;;;;;;;;;;;;;;;;;5030878;28;20330;-57
2022/10/04 02:50:40;;;;;;;;;;;;;;;;;;5027623;28;20036;-57
2022/10/04 02:53:21;;;;;;;;;;;;;;;;;;5021814;28;19971;-54
2022/10/04 02:55:47;;;;;;;;;;;;;;;;;;5029452;28;20333;-55
2022/10/04 02:58:14;;;;;;;;;;;;;;;;;;5030157;28;19967;-55
2022/10/04 03:00:48;;;;;;;;;;;;;;;;;;5029425;28;19987;-55
2022/10/04 03:03:16;;;;;;;;;;;;;;;;;;5028017;28;19924;-55
2022/10/04 03:05:42;;;;;;;;;;;;;;;;;;5031306;28;19912;-55
2022/10/04 03:08:08;;;;;;;;;;;;;;;;;;5032107;28;20362;-56
2022/10/04 03:10:34;;;;;;;;;;;;;;;;;;5032421;28;19917;-57
2022/10/04 03:13:00;;;;;;;;;;;;;;;;;;5035632;28;19917;-56
2022/10/04 03:15:25;;;;;;;;;;;;;;;;;;5031868;28;20300;-57
2022/10/04 03:17:50;;;;;;;;;;;;;;;;;;5034132;28;20297;-57
2022/10/04 03:20:20;;;;;;;;;;;;;;;;;;5035081;28;19935;-57
2022/10/04 03:22:47;;;;;;;;;;;;;;;;;;5029350;28;19958;-57
2022/10/04 03:25:15;;;;;;;;;;;;;;;;;;5035038;28;19920;-56
2022/10/04 03:27:41;;;;;;;;;;;;;;;;;;5036378;28;19919;-57
2022/10/04 03:30:11;;;;;;;;;;;;;;;;;;5030782;28;19913;-57
2022/10/04 03:32:38;;;;;;;;;;;;;;;;;;5028633;28;20632;-56
2022/10/04 03:35:06;;;;;;;;;;;;;;;;;;5029914;28;19928;-57
2022/10/04 03:37:34;;;;;;;;;;;;;;;;;;5029185;28;19917;-56
2022/10/04 03:40:00;;;;;;;;;;;;;;;;;;5034723;28;19912;-57
2022/10/04 03:42:29;;;;;;;;;;;;;;;;;;5028441;28;20004;-57
2022/10/04 03:44:58;;;;;;;;;;;;;;;;;;5030943;28;19916;-56
2022/10/04 03:47:25;;;;;;;;;;;;;;;;;;5029585;28;20378;-57
2022/10/04 03:49:51;;;;;;;;;;;;;;;;;;5030388;28;19913;-56
2022/10/04 03:52:28;;;;;;;;;;;;;;;;;;5029510;28;19920;-57
2022/10/04 03:54:56;;;;;;;;;;;;;;;;;;5029205;28;20665;-57
2022/10/04 03:57:22;;;;;;;;;;;;;;;;;;5030918;28;20470;-56
2022/10/04 03:59:47;;;;;;;;;;;;;;;;;;5030390;28;19956;-57
2022/10/04 04:02:25;;;;;;;;;;;;;;;;;;5028231;28;19913;-56
2022/10/04 04:05:13;;;;;;;;;;;;;;;;;;5028629;28;19912;-57
2022/10/04 04:07:42;;;;;;;;;;;;;;;;;;5027331;28;19971;-57
2022/10/04 04:10:22;;;;;;;;;;;;;;;;;;5029616;28;20054;-57
2022/10/04 04:13:02;;;;;;;;;;;;;;;;;;5028993;28;20390;-57
2022/10/04 04:15:32;;;;;;;;;;;;;;;;;;5029272;28;19921;-57
2022/10/04 04:18:12;;;;;;;;;;;;;;;;;;5035756;28;19913;-58
2022/10/04 04:20:38;;;;;;;;;;;;;;;;;;5036836;28;19931;-56
2022/10/04 04:23:09;;;;;;;;;;;;;;;;;;5036559;28;19913;-57
2022/10/04 04:25:37;;;;;;;;;;;;;;;;;;5033661;28;20483;-57
2022/10/04 04:28:06;;;;;;;;;;;;;;;;;;5040267;28;20375;-56
2022/10/04 04:30:32;;;;;;;;;;;;;;;;;;5034979;28;19913;-57
2022/10/04 04:33:02;;;;;;;;;;;;;;;;;;5031401;28;20386;-58
2022/10/04 04:35:31;;;;;;;;;;;;;;;;;;5027176;28;20012;-58
2022/10/04 04:38:02;;;;;;;;;;;;;;;;;;5033521;28;20047;-58
2022/10/04 04:40:27;;;;;;;;;;;;;;;;;;5029925;28;19960;-58
2022/10/04 04:42:56;;;;;;;;;;;;;;;;;;5032033;28;20024;-58
2022/10/04 04:45:24;;;;;;;;;;;;;;;;;;5032974;28;19917;-58
2022/10/04 04:47:51;;;;;;;;;;;;;;;;;;5034291;28;20009;-58
2022/10/04 04:50:21;;;;;;;;;;;;;;;;;;5033992;28;19913;-58
2022/10/04 04:52:49;;;;;;;;;;;;;;;;;;5033582;28;19917;-57
2022/10/04 04:55:18;;;;;;;;;;;;;;;;;;5034394;28;19916;-58
2022/10/04 04:57:44;;;;;;;;;;;;;;;;;;5030348;28;19920;-58
2022/10/04 05:00:16;;;;;;;;;;;;;;;;;;5035239;28;19967;-58
2022/10/04 05:02:49;;;;;;;;;;;;;;;;;;5036964;28;19917;-58
2022/10/04 05:05:14;;;;;;;;;;;;;;;;;;5036164;28;20394;-61
2022/10/04 05:07:42;;;;;;;;;;;;;;;;;;5034173;28;19943;-61
2022/10/04 05:10:26;;;;;;;;;;;;;;;;;;5036944;28;20452;-56
2022/10/04 05:12:52;;;;;;;;;;;;;;;;;;5030615;28;19917;-56
2022/10/04 05:15:17;;;;;;;;;;;;;;;;;;5031833;28;19936;-60
2022/10/04 05:17:43;;;;;;;;;;;;;;;;;;5032117;28;19945;-62
2022/10/04 05:20:10;;;;;;;;;;;;;;;;;;5034217;28;19916;-62
2022/10/04 05:22:37;;;;;;;;;;;;;;;;;;5030252;28;19913;-61
2022/10/04 05:25:06;;;;;;;;;;;;;;;;;;5029374;28;19913;-61
2022/10/04 05:27:35;;;;;;;;;;;;;;;;;;5040547;28;19932;-61
2022/10/04 05:30:04;;;;;;;;;;;;;;;;;;5032848;28;20004;-61
2022/10/04 05:32:47;;;;;;;;;;;;;;;;;;5036894;28;19963;-61
2022/10/04 05:35:17;;;;;;;;;;;;;;;;;;5030816;28;20375;-61
2022/10/04 05:37:54;;;;;;;;;;;;;;;;;;5031029;28;19939;-61
2022/10/04 05:40:20;;;;;;;;;;;;;;;;;;5030902;28;19919;-62
2022/10/04 05:42:45;;;;;;;;;;;;;;;;;;5030297;28;20020;-61
2022/10/04 05:45:16;;;;;;;;;;;;;;;;;;5030900;28;19963;-61
2022/10/04 05:47:42;;;;;;;;;;;;;;;;;;5030739;28;20344;-61
2022/10/04 05:50:15;;;;;;;;;;;;;;;;;;5030581;28;19916;-61
2022/10/04 05:52:42;;;;;;;;;;;;;;;;;;5030622;28;20371;-61
2022/10/04 05:55:15;;;;;;;;;;;;;;;;;;5031288;28;20004;-62
2022/10/04 05:57:46;;;;;;;;;;;;;;;;;;5027041;28;19917;-62
2022/10/04 06:00:11;;;;;;;;;;;;;;;;;;5030006;28;20398;-62
2022/10/04 06:02:53;;;;;;;;;;;;;;;;;;5030340;28;19920;-61
2022/10/04 06:05:27;;;;;;;;;;;;;;;;;;5035208;28;20414;-62
2022/10/04 06:08:11;;;;;;;;;;;;;;;;;;5028844;28;19932;-62
2022/10/04 06:10:37;;;;;;;;;;;;;;;;;;5033757;28;20439;-61
2022/10/04 06:13:18;;;;;;;;;;;;;;;;;;5036266;28;20110;-62
2022/10/04 06:15:44;;;;;;;;;;;;;;;;;;5033916;28;20383;-62
2022/10/04 06:18:21;;;;;;;;;;;;;;;;;;5034349;28;19913;-62
2022/10/04 06:20:53;;;;;;;;;;;;;;;;;;5037482;28;19908;-61
2022/10/04 06:23:20;;;;;;;;;;;;;;;;;;5036557;28;19968;-62
2022/10/04 06:26:03;;;;;;;;;;;;;;;;;;5029159;28;19913;-61
2022/10/04 06:28:49;;;;;;;;;;;;;;;;;;5025236;28;19913;-62
2022/10/04 06:31:33;;;;;;;;;;;;;;;;;;5029346;28;19909;-61
2022/10/04 06:34:17;;;;;;;;;;;;;;;;;;5037669;28;20433;-62
2022/10/04 06:36:54;;;;;;;;;;;;;;;;;;5028920;28;19973;-62
2022/10/04 06:39:25;;;;;;;;;;;;;;;;;;5033081;28;19913;-61
2022/10/04 06:42:09;;;;;;;;;;;;;;;;;;5028622;28;20011;-61
2022/10/04 06:44:53;;;;;;;;;;;;;;;;;;5031552;28;19920;-62
2022/10/04 06:47:35;;;;;;;;;;;;;;;;;;5031124;28;19919;-62
2022/10/04 06:50:16;;;;;;;;;;;;;;;;;;5026217;28;20017;-62
2022/10/04 06:53:00;;;;;;;;;;;;;;;;;;5025796;28;19936;-61
2022/10/04 06:55:48;;;;;;;;;;;;;;;;;;5028198;28;19917;-62
2022/10/04 06:58:52;;;;;;;;;;;;;;;;;;5026535;28;19913;-62
2022/10/04 07:01:29;;;;;;;;;;;;;;;;;;5000234;28;19914;-61
2022/10/04 07:03:55;;;;;;;;;;;;;;;;;;4997115;28;20371;-62
2022/10/04 07:06:26;;;;;;;;;;;;;;;;;;5013407;28;19944;-61
2022/10/04 07:08:58;;;;;;;;;;;;;;;;;;5030540;28;19948;-62
2022/10/04 07:11:35;;;;;;;;;;;;;;;;;;5033383;28;19912;-61
2022/10/04 07:14:15;;;;;;;;;;;;;;;;;;5028769;28;19925;-61
2022/10/04 07:16:53;;;;;;;;;;;;;;;;;;5032453;28;20330;-62
2022/10/04 07:19:19;;;;;;;;;;;;;;;;;;5026071;28;20026;-62
2022/10/04 07:22:04;;;;;;;;;;;;;;;;;;5028892;28;20123;-62
2022/10/04 07:24:40;;;;;;;;;;;;;;;;;;5029084;28;20379;-62
2022/10/04 07:27:08;;;;;;;;;;;;;;;;;;5027354;28;19913;-62
2022/10/04 07:29:40;;;;;;;;;;;;;;;;;;5033313;28;19913;-62
2022/10/04 07:32:05;;;;;;;;;;;;;;;;;;5035046;28;19916;-61
2022/10/04 07:34:34;;;;;;;;;;;;;;;;;;5036343;28;19940;-62
2022/10/04 07:37:05;;;;;;;;;;;;;;;;;;5032688;28;19912;-61
2022/10/04 07:39:30;;;;;;;;;;;;;;;;;;5026953;28;19996;-62
2022/10/04 07:41:56;;;;;;;;;;;;;;;;;;5027205;28;20024;-60
2022/10/04 07:44:30;;;;;;;;;;;;;;;;;;5027222;28;19944;-59
2022/10/04 07:47:15;;;;;;;;;;;;;;;;;;5026109;28;20394;-60
2022/10/04 07:49:43;;;;;;;;;;;;;;;;;;5028167;28;19917;-59
2022/10/04 07:52:11;;;;;;;;;;;;;;;;;;5030854;28;20310;-61
2022/10/04 07:54:50;;;;;;;;;;;;;;;;;;5030906;28;19986;-60
2022/10/04 07:57:19;;;;;;;;;;;;;;;;;;5026828;28;20363;-61
2022/10/04 07:59:53;;;;;;;;;;;;;;;;;;5027289;28;20071;-61
2022/10/04 08:02:37;;;;;;;;;;;;;;;;;;5028321;28;20603;-61
2022/10/04 08:05:05;;;;;;;;;;;;;;;;;;5030338;28;19925;-61
2022/10/04 08:07:43;;;;;;;;;;;;;;;;;;5028010;28;19920;-61
2022/10/04 08:10:27;;;;;;;;;;;;;;;;;;5030388;28;19921;-61
2022/10/04 08:13:08;;;;;;;;;;;;;;;;;;5025875;28;19921;-60
2022/10/04 08:15:38;;;;;;;;;;;;;;;;;;5029585;28;19959;-61
2022/10/04 08:18:03;;;;;;;;;;;;;;;;;;5029752;28;20283;-61
2022/10/04 08:20:28;;;;;;;;;;;;;;;;;;5030085;28;19920;-61
2022/10/04 08:23:05;;;;;;;;;;;;;;;;;;5029931;28;20004;-60
2022/10/04 08:25:42;;;;;;;;;;;;;;;;;;5026564;28;19913;-61
2022/10/04 08:31:38;;;;;;;;;;;;;;;;;;5026679;28;19959;-60
2022/10/04 08:34:22;;;;;;;;;;;;;;;;;;5012155;28;19923;-59
2022/10/04 08:36:58;;;;;;;;;;;;;;;;;;5028417;28;20363;-61
2022/10/04 08:39:34;;;;;;;;;;;;;;;;;;5028480;28;19962;-61
2022/10/04 08:42:06;;;;;;;;;;;;;;;;;;5033633;28;19975;-59
2022/10/04 08:44:41;;;;;;;;;;;;;;;;;;5029178;28;20398;-62
2022/10/04 08:47:10;;;;;;;;;;;;;;;;;;5028382;28;20448;-60
2022/10/04 08:49:47;;;;;;;;;;;;;;;;;;5032313;28;20000;-61
2022/10/04 08:52:37;;;;;;;;;;;;;;;;;;5026900;28;19948;-60
2022/10/04 08:55:05;;;;;;;;;;;;;;;;;;5025226;28;20390;-59
2022/10/04 08:57:48;;;;;;;;;;;;;;;;;;5027501;28;19995;-60
2022/10/04 09:00:17;;;;;;;;;;;;;;;;;;5029896;28;19913;-60
2022/10/04 09:03:00;;;;;;;;;;;;;;;;;;5032021;28;19947;-60
2022/10/04 09:05:44;;;;;;;;;;;;;;;;;;5031634;28;20364;-60
2022/10/04 09:08:27;;;;;;;;;;;;;;;;;;5029089;28;20027;-60
2022/10/04 09:11:11;;;;;;;;;;;;;;;;;;5030242;28;19913;-60
2022/10/04 09:13:57;;;;;;;;;;;;;;;;;;5028990;28;20048;-60
2022/10/04 09:16:37;;;;;;;;;;;;;;;;;;5030791;28;19912;-61
2022/10/04 09:19:15;;;;;;;;;;;;;;;;;;5032888;28;19971;-60
2022/10/04 09:21:46;;;;;;;;;;;;;;;;;;5026997;28;20016;-60
2022/10/04 09:24:27;;;;;;;;;;;;;;;;;;5030726;28;19971;-60
2022/10/04 09:26:52;;;;;;;;;;;;;;;;;;5032867;28;19928;-60
2022/10/04 09:29:20;;;;;;;;;;;;;;;;;;5034655;28;19919;-60
2022/10/04 09:31:55;;;;;;;;;;;;;;;;;;5028309;28;19917;-60
2022/10/04 09:34:22;;;;;;;;;;;;;;;;;;5028940;28;20382;-60
2022/10/04 09:36:51;;;;;;;;;;;;;;;;;;5055834;28;19913;-61
2022/10/04 09:39:35;;;;;;;;;;;;;;;;;;5032144;28;19948;-60
2022/10/04 09:42:19;;;;;;;;;;;;;;;;;;5030337;28;19917;-61
2022/10/04 09:45:05;;;;;;;;;;;;;;;;;;5033101;28;19970;-61
2022/10/04 09:47:42;;;;;;;;;;;;;;;;;;5030846;28;20319;-61
2022/10/04 09:50:23;;;;;;;;;;;;;;;;;;5031597;28;19913;-62
2022/10/04 09:52:52;;;;;;;;;;;;;;;;;;5030810;28;19921;-60
2022/10/04 09:55:27;;;;;;;;;;;;;;;;;;5029624;28;20004;-60
2022/10/04 09:57:53;;;;;;;;;;;;;;;;;;5028263;28;19913;-61
2022/10/04 10:00:21;;;;;;;;;;;;;;;;;;5033541;28;20302;-61
2022/10/04 10:03:04;;;;;;;;;;;;;;;;;;5030725;28;19920;-61
2022/10/04 10:05:48;;;;;;;;;;;;;;;;;;5030426;28;19912;-61
2022/10/04 10:08:28;;;;;;;;;;;;;;;;;;5029129;28;19964;-62
2022/10/04 10:14:04;;;;;;;;;;;;;;;;;;5030941;28;19973;-61
2022/10/04 10:16:29;;;;;;;;;;;;;;;;;;5030242;28;20382;-61
2022/10/04 10:19:11;;;;;;;;;;;;;;;;;;5029987;28;19919;-62
2022/10/04 10:21:49;;;;;;;;;;;;;;;;;;5028704;28;20059;-61
2022/10/04 10:24:20;;;;;;;;;;;;;;;;;;5030750;28;19919;-61
2022/10/04 10:27:04;;;;;;;;;;;;;;;;;;5028591;28;19912;-61
2022/10/04 10:29:45;;;;;;;;;;;;;;;;;;5029992;28;20383;-61
2022/10/04 10:32:28;;;;;;;;;;;;;;;;;;5028202;28;19921;-61
2022/10/04 10:34:59;;;;;;;;;;;;;;;;;;5028985;28;20310;-60
2022/10/04 10:37:25;;;;;;;;;;;;;;;;;;5027264;28;19920;-60
2022/10/04 10:40:09;;;;;;;;;;;;;;;;;;5030016;28;19920;-61
2022/10/04 10:42:35;;;;;;;;;;;;;;;;;;5027250;28;19919;-61
2022/10/04 10:45:09;;;;;;;;;;;;;;;;;;5029923;28;20023;-61
2022/10/04 10:47:41;;;;;;;;;;;;;;;;;;5033599;28;19924;-61
2022/10/04 10:50:15;;;;;;;;;;;;;;;;;;5031687;28;21221;-61
2022/10/04 10:52:43;;;;;;;;;;;;;;;;;;5028989;28;20275;-61
2022/10/04 10:55:12;;;;;;;;;;;;;;;;;;5030349;28;19916;-62
2022/10/04 10:57:56;;;;;;;;;;;;;;;;;;5031693;28;19913;-61
2022/10/04 11:00:23;;;;;;;;;;;;;;;;;;5032790;28;20421;-61
2022/10/04 11:03:04;;;;;;;;;;;;;;;;;;5032659;28;20213;-61
2022/10/04 11:05:48;;;;;;;;;;;;;;;;;;5027554;28;20402;-61
2022/10/04 11:08:32;;;;;;;;;;;;;;;;;;5033081;28;19991;-61
2022/10/04 11:11:15;;;;;;;;;;;;;;;;;;5031131;28;19975;-61
2022/10/04 11:13:53;;;;;;;;;;;;;;;;;;5023633;28;19917;-60
2022/10/04 11:16:18;;;;;;;;;;;;;;;;;;5027887;28;19920;-59
2022/10/04 11:19:02;;;;;;;;;;;;;;;;;;5029635;28;19913;-60
2022/10/04 11:21:39;;;;;;;;;;;;;;;;;;5025249;28;19935;-60
2022/10/04 11:24:07;;;;;;;;;;;;;;;;;;5026006;28;19943;-60
2022/10/04 11:26:42;;;;;;;;;;;;;;;;;;5028964;28;19920;-61
2022/10/04 11:29:19;;;;;;;;;;;;;;;;;;5026867;28;19913;-61
2022/10/04 11:31:53;;;;;;;;;;;;;;;;;;5026791;28;19917;-61
2022/10/04 11:34:49;;;;;;;;;;;;;;;;;;5028589;28;19936;-60
2022/10/04 11:37:15;;;;;;;;;;;;;;;;;;4974415;28;20327;-61
2022/10/04 11:45:59;;;;;;;;;;;;;;;;;;5028353;28;19920;-60
2022/10/04 11:48:24;;;;;;;;;;;;;;;;;;5030885;28;19913;-60
2022/10/04 11:51:09;;;;;;;;;;;;;;;;;;5031800;28;19936;-61
2022/10/04 11:53:53;;;;;;;;;;;;;;;;;;5024923;28;19924;-60
2022/10/04 11:56:39;;;;;;;;;;;;;;;;;;5030495;28;19916;-60
2022/10/04 11:59:04;;;;;;;;;;;;;;;;;;5032658;28;19913;-60
2022/10/04 12:01:30;;;;;;;;;;;;;;;;;;5029873;28;19924;-60
2022/10/04 12:03:59;;;;;;;;;;;;;;;;;;5027892;28;19913;-60
2022/10/04 12:06:24;;;;;;;;;;;;;;;;;;5036743;28;19919;-60
2022/10/04 12:08:55;;;;;;;;;;;;;;;;;;5029142;28;19917;-60
2022/10/04 12:12:35;;;;;;;;;;;;;;;;;;5029870;28;19923;-60
2022/10/04 12:14:25;;;;;;;;;;;;;;;;;;5027173;28;19925;-60
2022/10/04 12:16:55;;;;;;;;;;;;;;;;;;5027912;28;19913;-60
2022/10/04 12:19:29;;;;;;;;;;;;;;;;;;5028734;28;20378;-60
2022/10/04 12:21:58;;;;;;;;;;;;;;;;;;5028540;28;19913;-60
2022/10/04 12:24:28;;;;;;;;;;;;;;;;;;5026828;28;20320;-60
2022/10/04 12:26:58;;;;;;;;;;;;;;;;;;5027848;28;20016;-60
2022/10/04 12:29:44;;;;;;;;;;;;;;;;;;5027197;28;19967;-60
2022/10/04 12:32:35;;;;;;;;;;;;;;;;;;5023383;28;19917;-60
2022/10/04 12:35:00;;;;;;;;;;;;;;;;;;5000499;28;20541;-60
2022/10/04 12:37:55;;;;;;;;;;;;;;;;;;5032909;28;20007;-60
2022/10/04 12:40:28;;;;;;;;;;;;;;;;;;4996242;28;20053;-60
2022/10/04 12:43:08;;;;;;;;;;;;;;;;;;5031774;28;20329;-60
2022/10/04 12:45:51;;;;;;;;;;;;;;;;;;5030537;28;20536;-60
2022/10/04 12:48:35;;;;;;;;;;;;;;;;;;5031727;28;20011;-60
2022/10/04 12:51:18;;;;;;;;;;;;;;;;;;5033779;28;19913;-60
2022/10/04 12:53:47;;;;;;;;;;;;;;;;;;5037748;28;19943;-60
2022/10/04 12:56:21;;;;;;;;;;;;;;;;;;5033755;28;20290;-60
2022/10/04 12:59:09;;;;;;;;;;;;;;;;;;5035298;28;19917;-60
2022/10/04 13:01:39;;;;;;;;;;;;;;;;;;5030520;28;20442;-60
2022/10/04 13:04:22;;;;;;;;;;;;;;;;;;5032520;28;19939;-60
2022/10/04 13:06:50;;;;;;;;;;;;;;;;;;5033174;28;20030;-60
2022/10/04 13:09:34;;;;;;;;;;;;;;;;;;5031679;28;19916;-60
2022/10/04 13:12:12;;;;;;;;;;;;;;;;;;5031774;28;19967;-60
2022/10/04 13:14:57;;;;;;;;;;;;;;;;;;5029421;28;19959;-60
2022/10/04 13:17:28;;;;;;;;;;;;;;;;;;5030755;28;19913;-60
2022/10/04 13:20:12;;;;;;;;;;;;;;;;;;5031798;28;19927;-60
2022/10/04 13:22:44;;;;;;;;;;;;;;;;;;5028972;28;19921;-60
2022/10/04 13:25:28;;;;;;;;;;;;;;;;;;5028116;28;20458;-60
2022/10/04 13:28:12;;;;;;;;;;;;;;;;;;5044283;28;19935;-60
2022/10/04 13:30:43;;;;;;;;;;;;;;;;;;5029555;28;20000;-60
2022/10/04 13:33:09;;;;;;;;;;;;;;;;;;5028911;28;20418;-60
2022/10/04 13:35:40;;;;;;;;;;;;;;;;;;5030263;28;19944;-60
2022/10/04 13:38:11;;;;;;;;;;;;;;;;;;5031920;28;19913;-60
2022/10/04 13:40:36;;;;;;;;;;;;;;;;;;5031572;28;19917;-60
2022/10/04 13:43:04;;;;;;;;;;;;;;;;;;5032465;28;19920;-60
2022/10/04 13:45:39;;;;;;;;;;;;;;;;;;5030298;28;19950;-60
2022/10/04 13:48:21;;;;;;;;;;;;;;;;;;5033734;28;19920;-60
2022/10/04 13:50:55;;;;;;;;;;;;;;;;;;5035398;28;20432;-60
2022/10/04 13:56:35;;;;;;;;;;;;;;;;;;5029095;28;19927;-60
2022/10/04 13:59:19;;;;;;;;;;;;;;;;;;5029285;28;19913;-60
2022/10/04 14:01:51;;;;;;;;;;;;;;;;;;5028095;28;19917;-60
2022/10/04 14:04:16;;;;;;;;;;;;;;;;;;5029524;28;19913;-60
2022/10/04 14:06:42;;;;;;;;;;;;;;;;;;5029532;28;19920;-60
2022/10/04 14:09:13;;;;;;;;;;;;;;;;;;5030981;28;19913;-60
2022/10/04 14:11:40;;;;;;;;;;;;;;;;;;5030316;28;19921;-60
2022/10/04 14:14:17;;;;;;;;;;;;;;;;;;5033371;28;19920;-60
2022/10/04 14:17:00;;;;;;;;;;;;;;;;;;5029837;28;20394;-60
2022/10/04 14:19:31;;;;;;;;;;;;;;;;;;5027628;28;21145;-60
2022/10/04 14:22:11;;;;;;;;;;;;;;;;;;5029661;28;19974;-60
2022/10/04 14:24:37;;;;;;;;;;;;;;;;;;5028856;28;19926;-60
2022/10/04 14:27:03;;;;;;;;;;;;;;;;;;5026751;28;19913;-60
2022/10/04 14:29:46;;;;;;;;;;;;;;;;;;5026824;28;20394;-60
2022/10/04 14:32:11;;;;;;;;;;;;;;;;;;5027293;28;19913;-60
2022/10/04 14:34:43;;;;;;;;;;;;;;;;;;5029003;28;19947;-60
2022/10/04 14:37:19;;;;;;;;;;;;;;;;;;5027666;28;20015;-60
2022/10/04 14:39:54;;;;;;;;;;;;;;;;;;5030605;28;20424;-60
2022/10/04 14:42:20;;;;;;;;;;;;;;;;;;5027289;28;19917;-60
2022/10/04 14:44:46;;;;;;;;;;;;;;;;;;5028820;28;20367;-60
2022/10/04 14:47:14;;;;;;;;;;;;;;;;;;5029334;28;19966;-60
2022/10/04 14:49:58;;;;;;;;;;;;;;;;;;5034357;28;19913;-60
2022/10/04 14:52:32;;;;;;;;;;;;;;;;;;5028021;28;19912;-60
2022/10/04 14:55:13;;;;;;;;;;;;;;;;;;5029078;28;20399;-60
2022/10/04 14:57:45;;;;;;;;;;;;;;;;;;5029292;28;19917;-60
2022/10/04 15:00:20;;;;;;;;;;;;;;;;;;5030018;28;20398;-60
2022/10/04 15:02:55;;;;;;;;;;;;;;;;;;5029504;28;19912;-60
2022/10/04 15:05:33;;;;;;;;;;;;;;;;;;5028725;28;19920;-60
2022/10/04 15:08:17;;;;;;;;;;;;;;;;;;5027461;28;20422;-60
2022/10/04 15:11:11;;;;;;;;;;;;;;;;;;5029362;28;19920;-60
2022/10/04 15:14:07;;;;;;;;;;;;;;;;;;5017747;28;19924;-60
2022/10/04 15:16:41;;;;;;;;;;;;;;;;;;5030191;28;19917;-60
2022/10/04 15:19:10;;;;;;;;;;;;;;;;;;5046999;28;19976;-60
2022/10/04 15:21:41;;;;;;;;;;;;;;;;;;5028089;28;19920;-60
2022/10/04 15:24:26;;;;;;;;;;;;;;;;;;5029216;28;20008;-60
2022/10/04 15:27:10;;;;;;;;;;;;;;;;;;5028061;28;20026;-60
2022/10/04 15:29:41;;;;;;;;;;;;;;;;;;5026609;28;19920;-60
2022/10/04 15:32:24;;;;;;;;;;;;;;;;;;5026827;28;19917;-60
2022/10/04 15:34:53;;;;;;;;;;;;;;;;;;5028383;28;19917;-60
2022/10/04 15:37:18;;;;;;;;;;;;;;;;;;5029406;28;20377;-60
2022/10/04 15:39:53;;;;;;;;;;;;;;;;;;5029254;28;19934;-60
2022/10/04 15:42:18;;;;;;;;;;;;;;;;;;5028562;28;19912;-60
2022/10/04 15:44:56;;;;;;;;;;;;;;;;;;5031442;28;19920;-60
2022/10/04 15:47:33;;;;;;;;;;;;;;;;;;5028928;28;19913;-60
2022/10/04 15:50:02;;;;;;;;;;;;;;;;;;5028870;28;19917;-60
2022/10/04 15:52:40;;;;;;;;;;;;;;;;;;5029736;28;20035;-60
2022/10/04 15:55:06;;;;;;;;;;;;;;;;;;5031234;28;19924;-60
2022/10/04 15:57:34;;;;;;;;;;;;;;;;;;5029486;28;20415;-60
2022/10/04 16:00:18;;;;;;;;;;;;;;;;;;5026930;28;19913;-60
2022/10/04 16:02:47;;;;;;;;;;;;;;;;;;5027619;28;19913;-60
2022/10/04 16:05:38;;;;;;;;;;;;;;;;;;5030873;28;19913;-60
2022/10/04 16:08:09;;;;;;;;;;;;;;;;;;5033808;28;19921;-60
2022/10/04 16:10:56;;;;;;;;;;;;;;;;;;5026414;28;19913;-60
2022/10/04 16:13:22;;;;;;;;;;;;;;;;;;5032118;28;19917;-60
2022/10/04 16:16:07;;;;;;;;;;;;;;;;;;5032019;28;19913;-60
2022/10/04 16:18:59;;;;;;;;;;;;;;;;;;5030744;28;19999;-59
2022/10/04 16:21:29;;;;;;;;;;;;;;;;;;5019892;28;19919;-60
2022/10/04 16:24:13;;;;;;;;;;;;;;;;;;5031801;28;19955;-60
2022/10/04 16:26:42;;;;;;;;;;;;;;;;;;5032724;28;19924;-59
2022/10/04 16:29:28;;;;;;;;;;;;;;;;;;5046909;28;20550;-59
2022/10/04 16:32:09;;;;;;;;;;;;;;;;;;5031347;28;19921;-60
2022/10/04 16:34:50;;;;;;;;;;;;;;;;;;5034976;28;19924;-59
2022/10/04 16:37:27;;;;;;;;;;;;;;;;;;5032502;28;20016;-59
2022/10/04 16:39:58;;;;;;;;;;;;;;;;;;5030166;28;20302;-59
2022/10/04 16:42:39;;;;;;;;;;;;;;;;;;5029524;28;20334;-59
2022/10/04 16:45:04;;;;;;;;;;;;;;;;;;5027492;28;20011;-59
2022/10/04 16:47:36;;;;;;;;;;;;;;;;;;5029995;28;20004;-59
2022/10/04 16:50:03;;;;;;;;;;;;;;;;;;5035279;28;19951;-56
2022/10/04 16:52:43;;;;;;;;;;;;;;;;;;5032982;28;20329;-59
2022/10/04 16:55:08;;;;;;;;;;;;;;;;;;5035183;28;19999;-59
2022/10/04 16:57:33;;;;;;;;;;;;;;;;;;5030358;28;20681;-59
2022/10/04 17:00:09;;;;;;;;;;;;;;;;;;5034760;28;20275;-59
2022/10/04 17:02:52;;;;;;;;;;;;;;;;;;5030826;28;20008;-59
2022/10/04 17:05:36;;;;;;;;;;;;;;;;;;5031377;28;19919;-59
2022/10/04 17:08:03;;;;;;;;;;;;;;;;;;5032252;28;19920;-59
2022/10/04 17:10:37;;;;;;;;;;;;;;;;;;5032149;28;19932;-59
2022/10/04 17:13:16;;;;;;;;;;;;;;;;;;5032920;28;19936;-59
2022/10/04 17:15:59;;;;;;;;;;;;;;;;;;5033418;28;20050;-59
2022/10/04 17:18:25;;;;;;;;;;;;;;;;;;5030630;28;20375;-59
2022/10/04 17:20:55;;;;;;;;;;;;;;;;;;5030823;28;19917;-59
2022/10/04 17:23:40;;;;;;;;;;;;;;;;;;5028513;28;19996;-59
2022/10/04 17:26:06;;;;;;;;;;;;;;;;;;5028021;28;19920;-59
2022/10/04 17:28:46;;;;;;;;;;;;;;;;;;5031007;28;19909;-59
2022/10/04 17:31:14;;;;;;;;;;;;;;;;;;5031776;28;19921;-59
2022/10/04 17:33:40;;;;;;;;;;;;;;;;;;5029522;28;19921;-59
2022/10/04 17:36:20;;;;;;;;;;;;;;;;;;5033043;28;20004;-59
2022/10/04 17:38:51;;;;;;;;;;;;;;;;;;5034366;28;20402;-59
2022/10/04 17:41:17;;;;;;;;;;;;;;;;;;5029217;28;20335;-59
2022/10/04 17:43:42;;;;;;;;;;;;;;;;;;5033011;28;20000;-59
2022/10/04 17:46:13;;;;;;;;;;;;;;;;;;5030632;28;19919;-59
2022/10/04 17:57:21;;;;;;;;;;;;;;;;;;5027782;28;19923;-59